Historique des mesures à Cassis (13260), France
Quotidien Résumé Mars 15, 2017 Unités:  US    Métrique   Métrique/US
« Précédent (Jour)
Suivant (Jour) »
Quotidien Hebdomadaire Mensuel Annuel Période au choix
  Maximum: Minimum: Moyenne:
Température: 32 °F 50.9 °F 56.3 °F
Point de rosée: 32 °F 41.4 °F 45.3 °F
Humidité: Humidity % 59 % 63 %
Vitesse du vent: WindSpeedKMH mph 0.0 mph 1.7 mph
Rafales: WindSpeedGustKMH mph - -
Vent:- - SE
Pression: 0 in 30.2 in -
Précipitations: 0 in    
Historical Graphs
 
 
Mesures pour : Mars 15, 2017
Heure Temperature Point de rosée Pression Vent Vitesse du vent Rafales Humidité Pluie (par heure) Conditions
32 °F 32 °F 0 in Calm     Humidity % 0 in SoftwareType W/m2
00:11 53.4 °F 42.6 °F 30.2 in North 2.1 mph 4.0 mph 67 % 0 in open2300-1.11 W/m2
01:10 53.8 °F 43.3 °F 30.2 in Calm   1.4 mph 68 % 0 in open2300-1.11 W/m2
02:11 53.1 °F 42.4 °F 30.2 in Calm     67 % 0 in open2300-1.11 W/m2
03:10 52 °F 41.7 °F 30.2 in Calm   3.2 mph 68 % 0 in open2300-1.11 W/m2
04:11 51.8 °F 41.5 °F 30.2 in Calm   1.8 mph 68 % 0 in open2300-1.11 W/m2
05:10 51.6 °F 42.3 °F 30.2 in NNW 2.1 mph 2.1 mph 70 % 0 in open2300-1.11 W/m2
06:11 50.9 °F 41.5 °F 30.2 in North 2.6 mph 5.0 mph 70 % 0 in open2300-1.11 W/m2
07:10 50.9 °F 41.5 °F 30.2 in NNE 1.4 mph 5.8 mph 70 % 0 in open2300-1.11 W/m2
08:11 52 °F 42.6 °F 30.2 in Calm     70 % 0 in open2300-1.11 W/m2
09:10 55.6 °F 45.7 °F 30.2 in Calm     69 % 0 in open2300-1.11 W/m2
10:11 57.6 °F 46.9 °F 30.3 in South 2.6 mph 6.4 mph 68 % 0 in open2300-1.11 W/m2
11:10 61.7 °F 49.5 °F 30.3 in SSE 3.5 mph 3.5 mph 64 % 0 in open2300-1.11 W/m2
12:11 64.2 °F 51.3 °F 30.2 in SSE 3.2 mph 3.2 mph 63 % 0 in open2300-1.11 W/m2
13:10 65.1 °F 50.9 °F 30.2 in SSE 3.2 mph 4.3 mph 60 % 0 in open2300-1.11 W/m2
14:11 64.9 °F 50.2 °F 30.2 in SSE 2.9 mph 5.8 mph 59 % 0 in open2300-1.11 W/m2
15:10 64.4 °F 49.6 °F 30.2 in ESE 4.7 mph 4.7 mph 59 % 0 in open2300-1.11 W/m2
16:11 64.2 °F 50.9 °F 30.2 in ESE 3.5 mph 6.1 mph 62 % 0 in open2300-1.11 W/m2
17:10 62.6 °F 51.4 °F 30.2 in SE 4.0 mph 4.0 mph 67 % 0 in open2300-1.11 W/m2
18:11 61.3 °F 52 °F 30.2 in SE 1.8 mph 1.8 mph 71 % 0 in open2300-1.11 W/m2
19:10 58.8 °F 49.8 °F 30.2 in Calm     72 % 0 in open2300-1.11 W/m2
20:11 57.4 °F 45.3 °F 30.2 in SSW 1.8 mph 1.8 mph 64 % 0 in open2300-1.11 W/m2
21:10 56.1 °F 42.8 °F 30.2 in NNW 1.8 mph 1.8 mph 61 % 0 in open2300-1.11 W/m2
22:11 56.1 °F 42.1 °F 30.2 in North 2.1 mph 2.6 mph 59 % 0 in open2300-1.11 W/m2
23:10 55.6 °F 41.4 °F 30.2 in Calm   2.1 mph 59 % 0 in open2300-1.11 W/m2
Observations météo à CASSIS
WU-History script by Weather Underground - 1 mb